sensor_id;sensor_type;location;lat;lon;timestamp;pressure;altitude;pressure_sealevel;temperature;humidity
65832;BME280;52593;42.648;23.332;2023-05-02T00:00:47;94863.13;;;11.04;71.87
65832;BME280;52593;42.648;23.332;2023-05-02T00:03:13;94859.91;;;11.09;71.34
65832;BME280;52593;42.648;23.332;2023-05-02T00:05:38;94872.56;;;11.15;71.20
65832;BME280;52593;42.648;23.332;2023-05-02T00:08:05;94863.56;;;11.08;71.44
65832;BME280;52593;42.648;23.332;2023-05-02T00:10:30;94873.94;;;11.11;71.83
65832;BME280;52593;42.648;23.332;2023-05-02T00:12:56;94863.31;;;11.18;71.16
65832;BME280;52593;42.648;23.332;2023-05-02T00:15:21;94863.31;;;11.18;71.15
65832;BME280;52593;42.648;23.332;2023-05-02T00:17:46;94858.66;;;11.20;71.09
65832;BME280;52593;42.648;23.332;2023-05-02T00:20:12;94864.00;;;11.20;71.50
65832;BME280;52593;42.648;23.332;2023-05-02T00:22:38;94858.47;;;11.21;71.31
65832;BME280;52593;42.648;23.332;2023-05-02T00:25:04;94869.00;;;11.23;71.19
65832;BME280;52593;42.648;23.332;2023-05-02T00:27:30;94871.13;;;11.28;71.00
65832;BME280;52593;42.648;23.332;2023-05-02T00:29:56;94876.84;;;11.24;71.26
65832;BME280;52593;42.648;23.332;2023-05-02T00:32:23;94879.75;;;11.15;71.60
65832;BME280;52593;42.648;23.332;2023-05-02T00:34:48;94876.56;;;11.19;71.37
65832;BME280;52593;42.648;23.332;2023-05-02T00:37:14;94884.09;;;11.16;71.51
65832;BME280;52593;42.648;23.332;2023-05-02T00:39:40;94880.66;;;11.07;72.04
65832;BME280;52593;42.648;23.332;2023-05-02T00:42:05;94895.72;;;11.08;72.03
65832;BME280;52593;42.648;23.332;2023-05-02T00:44:31;94887.75;;;11.00;72.70
65832;BME280;52593;42.648;23.332;2023-05-02T00:46:57;94889.41;;;11.01;72.45
65832;BME280;52593;42.648;23.332;2023-05-02T00:49:25;94892.56;;;11.04;72.44
65832;BME280;52593;42.648;23.332;2023-05-02T00:51:50;94886.84;;;11.07;72.20
65832;BME280;52593;42.648;23.332;2023-05-02T00:54:17;94882.84;;;11.03;72.57
65832;BME280;52593;42.648;23.332;2023-05-02T00:56:42;94879.03;;;10.98;72.78
65832;BME280;52593;42.648;23.332;2023-05-02T00:59:09;94884.53;;;11.04;72.65
65832;BME280;52593;42.648;23.332;2023-05-02T01:04:29;94889.94;;;10.96;73.16
65832;BME280;52593;42.648;23.332;2023-05-02T01:12:05;94888.63;;;10.92;73.84
65832;BME280;52593;42.648;23.332;2023-05-02T01:14:40;94884.63;;;10.88;73.86
65832;BME280;52593;42.648;23.332;2023-05-02T01:17:10;94881.50;;;10.84;73.99
65832;BME280;52593;42.648;23.332;2023-05-02T01:19:46;94877.97;;;10.84;74.09
65832;BME280;52593;42.648;23.332;2023-05-02T01:22:15;94870.97;;;10.83;74.23
65832;BME280;52593;42.648;23.332;2023-05-02T01:24:57;94879.94;;;10.90;74.06
65832;BME280;52593;42.648;23.332;2023-05-02T01:27:33;94865.81;;;10.73;74.87
65832;BME280;52593;42.648;23.332;2023-05-02T01:30:01;94862.13;;;10.74;75.11
65832;BME280;52593;42.648;23.332;2023-05-02T01:32:30;94870.41;;;10.64;75.47
65832;BME280;52593;42.648;23.332;2023-05-02T01:34:59;94871.22;;;10.65;75.63
65832;BME280;52593;42.648;23.332;2023-05-02T01:37:26;94871.41;;;10.63;75.99
65832;BME280;52593;42.648;23.332;2023-05-02T01:39:54;94874.59;;;10.59;75.90
65832;BME280;52593;42.648;23.332;2023-05-02T01:42:21;94881.50;;;10.53;75.84
65832;BME280;52593;42.648;23.332;2023-05-02T01:44:49;94882.00;;;10.48;76.62
65832;BME280;52593;42.648;23.332;2023-05-02T01:47:17;94885.09;;;10.37;76.99
65832;BME280;52593;42.648;23.332;2023-05-02T01:49:44;94880.22;;;10.41;76.62
65832;BME280;52593;42.648;23.332;2023-05-02T01:52:11;94883.59;;;10.34;77.36
65832;BME280;52593;42.648;23.332;2023-05-02T01:54:39;94877.09;;;10.21;77.91
65832;BME280;52593;42.648;23.332;2023-05-02T01:57:06;94881.09;;;10.16;78.40
65832;BME280;52593;42.648;23.332;2023-05-02T01:59:34;94876.97;;;10.14;78.65
65832;BME280;52593;42.648;23.332;2023-05-02T02:02:01;94873.94;;;10.17;78.66
65832;BME280;52593;42.648;23.332;2023-05-02T02:04:28;94866.25;;;10.14;78.99
65832;BME280;52593;42.648;23.332;2023-05-02T02:07:06;94879.28;;;10.17;78.77
65832;BME280;52593;42.648;23.332;2023-05-02T02:09:33;94875.31;;;10.05;79.43
65832;BME280;52593;42.648;23.332;2023-05-02T02:12:04;94887.16;;;10.10;79.44
65832;BME280;52593;42.648;23.332;2023-05-02T02:14:36;94870.00;;;9.88;80.23
65832;BME280;52593;42.648;23.332;2023-05-02T02:17:09;94867.81;;;9.92;80.18
65832;BME280;52593;42.648;23.332;2023-05-02T02:19:37;94869.03;;;9.89;80.18
65832;BME280;52593;42.648;23.332;2023-05-02T02:22:05;94871.38;;;9.76;80.94
65832;BME280;52593;42.648;23.332;2023-05-02T02:24:35;94865.53;;;9.80;80.96
65832;BME280;52593;42.648;23.332;2023-05-02T02:27:01;94867.72;;;9.69;81.52
65832;BME280;52593;42.648;23.332;2023-05-02T02:29:27;94872.56;;;9.73;81.26
65832;BME280;52593;42.648;23.332;2023-05-02T02:31:53;94874.22;;;9.66;81.16
65832;BME280;52593;42.648;23.332;2023-05-02T02:34:19;94879.56;;;9.74;81.08
65832;BME280;52593;42.648;23.332;2023-05-02T02:37:04;94875.38;;;9.80;80.58
65832;BME280;52593;42.648;23.332;2023-05-02T02:43:02;94883.06;;;9.75;80.56
65832;BME280;52593;42.648;23.332;2023-05-02T02:51:17;94883.06;;;9.75;80.35
65832;BME280;52593;42.648;23.332;2023-05-02T02:53:54;94886.59;;;9.67;80.74
65832;BME280;52593;42.648;23.332;2023-05-02T02:56:35;94884.41;;;9.71;80.71
65832;BME280;52593;42.648;23.332;2023-05-02T02:59:05;94890.44;;;9.73;80.75
65832;BME280;52593;42.648;23.332;2023-05-02T03:01:35;94890.41;;;9.81;80.57
65832;BME280;52593;42.648;23.332;2023-05-02T03:04:04;94893.09;;;9.73;80.70
65832;BME280;52593;42.648;23.332;2023-05-02T03:06:31;94894.75;;;9.82;80.49
65832;BME280;52593;42.648;23.332;2023-05-02T03:08:57;94892.59;;;9.77;80.61
65832;BME280;52593;42.648;23.332;2023-05-02T03:11:22;94896.91;;;9.78;80.47
65832;BME280;52593;42.648;23.332;2023-05-02T03:13:48;94905.78;;;9.71;81.00
65832;BME280;52593;42.648;23.332;2023-05-02T03:16:35;94904.44;;;9.75;80.88
65832;BME280;52593;42.648;23.332;2023-05-02T03:19:02;94908.97;;;9.66;81.00
65832;BME280;52593;42.648;23.332;2023-05-02T03:21:29;94908.78;;;9.68;81.13
65832;BME280;52593;42.648;23.332;2023-05-02T03:24:00;94911.13;;;9.71;80.96
65832;BME280;52593;42.648;23.332;2023-05-02T03:26:26;94913.66;;;9.64;81.26
65832;BME280;52593;42.648;23.332;2023-05-02T03:28:53;94915.16;;;9.67;81.12
65832;BME280;52593;42.648;23.332;2023-05-02T03:31:19;94919.13;;;9.71;80.67
65832;BME280;52593;42.648;23.332;2023-05-02T03:33:45;94917.78;;;9.83;80.50
65832;BME280;52593;42.648;23.332;2023-05-02T03:36:11;94922.31;;;9.74;81.02
65832;BME280;52593;42.648;23.332;2023-05-02T03:38:36;94917.84;;;9.67;81.19
65832;BME280;52593;42.648;23.332;2023-05-02T03:41:02;94921.66;;;9.72;81.23
65832;BME280;52593;42.648;23.332;2023-05-02T03:43:28;94915.97;;;9.67;81.21
65832;BME280;52593;42.648;23.332;2023-05-02T03:45:53;94918.00;;;9.65;81.09
65832;BME280;52593;42.648;23.332;2023-05-02T03:48:19;94920.50;;;9.67;81.18
65832;BME280;52593;42.648;23.332;2023-05-02T03:50:44;94927.16;;;9.71;81.27
65832;BME280;52593;42.648;23.332;2023-05-02T03:53:10;94919.13;;;9.71;81.34
65832;BME280;52593;42.648;23.332;2023-05-02T03:55:39;94923.16;;;9.75;81.30
65832;BME280;52593;42.648;23.332;2023-05-02T03:58:05;94913.97;;;9.61;81.75
65832;BME280;52593;42.648;23.332;2023-05-02T04:00:30;94918.63;;;9.75;81.30
65832;BME280;52593;42.648;23.332;2023-05-02T04:02:56;94921.81;;;9.71;81.52
65832;BME280;52593;42.648;23.332;2023-05-02T04:05:21;94922.66;;;9.71;81.41
65832;BME280;52593;42.648;23.332;2023-05-02T04:07:47;94923.16;;;9.67;81.42
65832;BME280;52593;42.648;23.332;2023-05-02T04:10:12;94924.16;;;9.74;81.02
65832;BME280;52593;42.648;23.332;2023-05-02T04:12:41;94920.63;;;9.81;80.21
65832;BME280;52593;42.648;23.332;2023-05-02T04:15:08;94924.97;;;9.91;79.91
65832;BME280;52593;42.648;23.332;2023-05-02T04:17:33;94920.13;;;9.94;79.61
65832;BME280;52593;42.648;23.332;2023-05-02T04:19:59;94923.63;;;9.95;79.42
65832;BME280;52593;42.648;23.332;2023-05-02T04:22:24;94919.25;;;10.02;79.07
65832;BME280;52593;42.648;23.332;2023-05-02T04:24:49;94918.09;;;10.05;78.56
65832;BME280;52593;42.648;23.332;2023-05-02T04:27:15;94917.88;;;10.14;78.17
65832;BME280;52593;42.648;23.332;2023-05-02T04:29:40;94923.72;;;10.18;77.65
65832;BME280;52593;42.648;23.332;2023-05-02T04:32:06;94924.88;;;10.24;77.17
65832;BME280;52593;42.648;23.332;2023-05-02T04:34:31;94926.72;;;10.23;77.00
65832;BME280;52593;42.648;23.332;2023-05-02T04:36:56;94933.72;;;10.24;76.73
65832;BME280;52593;42.648;23.332;2023-05-02T04:39:22;94927.69;;;10.30;76.46
65832;BME280;52593;42.648;23.332;2023-05-02T04:41:47;94928.38;;;10.24;76.36
65832;BME280;52593;42.648;23.332;2023-05-02T04:44:13;94935.22;;;10.27;76.55
65832;BME280;52593;42.648;23.332;2023-05-02T04:46:39;94934.88;;;10.30;76.57
65832;BME280;52593;42.648;23.332;2023-05-02T04:49:04;94924.84;;;10.32;76.25
65832;BME280;52593;42.648;23.332;2023-05-02T04:51:30;94923.38;;;10.29;75.97
65832;BME280;52593;42.648;23.332;2023-05-02T04:53:56;94930.91;;;10.34;75.69
65832;BME280;52593;42.648;23.332;2023-05-02T04:56:21;94935.91;;;10.37;75.19
65832;BME280;52593;42.648;23.332;2023-05-02T04:58:46;94934.34;;;10.43;74.79
65832;BME280;52593;42.648;23.332;2023-05-02T05:01:12;94931.84;;;10.41;74.57
65832;BME280;52593;42.648;23.332;2023-05-02T05:03:37;94935.03;;;10.45;74.31
65832;BME280;52593;42.648;23.332;2023-05-02T05:06:03;94933.84;;;10.47;73.52
65832;BME280;52593;42.648;23.332;2023-05-02T05:08:28;94926.31;;;10.51;73.11
65832;BME280;52593;42.648;23.332;2023-05-02T05:10:54;94930.50;;;10.53;73.47
65832;BME280;52593;42.648;23.332;2023-05-02T05:13:19;94936.50;;;10.56;73.66
65832;BME280;52593;42.648;23.332;2023-05-02T05:15:44;94933.13;;;10.62;73.46
65832;BME280;52593;42.648;23.332;2023-05-02T05:18:11;94934.69;;;10.79;73.51
65832;BME280;52593;42.648;23.332;2023-05-02T05:20:36;94939.28;;;10.70;72.94
65832;BME280;52593;42.648;23.332;2023-05-02T05:23:02;94939.22;;;10.79;73.01
65832;BME280;52593;42.648;23.332;2023-05-02T05:25:28;94945.13;;;10.74;72.78
65832;BME280;52593;42.648;23.332;2023-05-02T05:27:53;94944.25;;;10.82;72.74
65832;BME280;52593;42.648;23.332;2023-05-02T05:30:20;94951.44;;;10.81;72.49
65832;BME280;52593;42.648;23.332;2023-05-02T05:32:46;94954.19;;;10.96;71.94
65832;BME280;52593;42.648;23.332;2023-05-02T05:35:11;94953.47;;;11.02;71.64
65832;BME280;52593;42.648;23.332;2023-05-02T05:37:37;94942.06;;;11.09;71.13
65832;BME280;52593;42.648;23.332;2023-05-02T05:40:07;94950.06;;;11.17;72.15
65832;BME280;52593;42.648;23.332;2023-05-02T05:42:33;94950.41;;;11.14;70.92
65832;BME280;52593;42.648;23.332;2023-05-02T05:44:59;94953.31;;;11.04;71.02
65832;BME280;52593;42.648;23.332;2023-05-02T05:47:24;94949.22;;;11.16;70.48
65832;BME280;52593;42.648;23.332;2023-05-02T05:49:54;94954.34;;;11.26;70.28
65832;BME280;52593;42.648;23.332;2023-05-02T05:52:19;94953.47;;;11.34;69.98
65832;BME280;52593;42.648;23.332;2023-05-02T05:54:45;94962.50;;;11.56;69.02
65832;BME280;52593;42.648;23.332;2023-05-02T05:57:10;94957.50;;;11.53;69.66
65832;BME280;52593;42.648;23.332;2023-05-02T05:59:36;94970.38;;;11.57;68.92
65832;BME280;52593;42.648;23.332;2023-05-02T06:02:01;94965.84;;;11.58;68.35
65832;BME280;52593;42.648;23.332;2023-05-02T06:04:28;94963.38;;;11.71;68.06
65832;BME280;52593;42.648;23.332;2023-05-02T06:06:53;94974.97;;;11.72;67.81
65832;BME280;52593;42.648;23.332;2023-05-02T06:09:19;94966.44;;;11.68;68.11
65832;BME280;52593;42.648;23.332;2023-05-02T06:11:44;94963.59;;;11.85;67.66
65832;BME280;52593;42.648;23.332;2023-05-02T06:14:10;94962.59;;;11.86;67.14
65832;BME280;52593;42.648;23.332;2023-05-02T06:16:35;94967.56;;;11.97;66.63
65832;BME280;52593;42.648;23.332;2023-05-02T06:19:01;94958.88;;;11.95;66.22
65832;BME280;52593;42.648;23.332;2023-05-02T06:21:26;94963.91;;;11.90;65.48
65832;BME280;52593;42.648;23.332;2023-05-02T06:23:52;94958.91;;;11.87;65.64
65832;BME280;52593;42.648;23.332;2023-05-02T06:26:17;94957.69;;;12.12;64.41
65832;BME280;52593;42.648;23.332;2023-05-02T06:28:42;94951.22;;;12.22;64.13
65832;BME280;52593;42.648;23.332;2023-05-02T06:31:08;94950.66;;;12.26;63.04
65832;BME280;52593;42.648;23.332;2023-05-02T06:33:34;94953.47;;;12.33;64.00
65832;BME280;52593;42.648;23.332;2023-05-02T06:36:00;94953.81;;;12.45;62.48
65832;BME280;52593;42.648;23.332;2023-05-02T06:38:25;94950.31;;;12.44;62.40
65832;BME280;52593;42.648;23.332;2023-05-02T06:40:51;94949.56;;;12.51;62.14
65832;BME280;52593;42.648;23.332;2023-05-02T06:43:17;94956.13;;;12.63;62.03
65832;BME280;52593;42.648;23.332;2023-05-02T06:45:43;94943.81;;;12.54;61.10
65832;BME280;52593;42.648;23.332;2023-05-02T06:48:08;94950.50;;;12.58;60.94
65832;BME280;52593;42.648;23.332;2023-05-02T06:50:34;94957.88;;;12.71;60.24
65832;BME280;52593;42.648;23.332;2023-05-02T06:53:00;94953.19;;;12.73;60.52
65832;BME280;52593;42.648;23.332;2023-05-02T06:55:25;94948.50;;;12.81;60.14
65832;BME280;52593;42.648;23.332;2023-05-02T06:57:53;94950.38;;;12.81;59.58
65832;BME280;52593;42.648;23.332;2023-05-02T07:00:19;94946.44;;;12.98;60.54
65832;BME280;52593;42.648;23.332;2023-05-02T07:02:46;94939.22;;;12.99;59.52
65832;BME280;52593;42.648;23.332;2023-05-02T07:05:11;94932.59;;;13.16;59.87
65832;BME280;52593;42.648;23.332;2023-05-02T07:07:42;94931.78;;;13.16;58.39
65832;BME280;52593;42.648;23.332;2023-05-02T07:10:09;94931.44;;;13.41;58.44
65832;BME280;52593;42.648;23.332;2023-05-02T07:12:35;94941.19;;;13.42;57.49
65832;BME280;52593;42.648;23.332;2023-05-02T07:15:01;94943.16;;;13.54;56.30
65832;BME280;52593;42.648;23.332;2023-05-02T07:17:26;94949.94;;;13.50;56.37
65832;BME280;52593;42.648;23.332;2023-05-02T07:19:52;94943.78;;;13.56;55.53
65832;BME280;52593;42.648;23.332;2023-05-02T07:22:18;94942.91;;;13.71;55.31
65832;BME280;52593;42.648;23.332;2023-05-02T07:24:43;94944.16;;;13.75;55.77
65832;BME280;52593;42.648;23.332;2023-05-02T07:27:10;94941.38;;;13.62;54.25
65832;BME280;52593;42.648;23.332;2023-05-02T07:29:36;94941.16;;;13.85;54.35
65832;BME280;52593;42.648;23.332;2023-05-02T07:32:02;94939.75;;;13.67;54.45
65832;BME280;52593;42.648;23.332;2023-05-02T07:34:27;94937.13;;;13.74;54.46
65832;BME280;52593;42.648;23.332;2023-05-02T07:36:53;94935.56;;;13.86;54.34
65832;BME280;52593;42.648;23.332;2023-05-02T07:39:18;94932.25;;;13.84;54.87
65832;BME280;52593;42.648;23.332;2023-05-02T07:41:44;94938.13;;;13.95;54.44
65832;BME280;52593;42.648;23.332;2023-05-02T07:44:10;94942.13;;;14.05;53.77
65832;BME280;52593;42.648;23.332;2023-05-02T07:46:35;94944.13;;;14.25;53.89
65832;BME280;52593;42.648;23.332;2023-05-02T07:49:01;94948.16;;;14.36;54.22
65832;BME280;52593;42.648;23.332;2023-05-02T07:51:26;94948.16;;;14.36;53.07
65832;BME280;52593;42.648;23.332;2023-05-02T07:53:52;94939.09;;;14.43;51.61
65832;BME280;52593;42.648;23.332;2023-05-02T07:56:19;94944.97;;;14.25;52.70
65832;BME280;52593;42.648;23.332;2023-05-02T07:58:45;94946.16;;;14.51;53.20
65832;BME280;52593;42.648;23.332;2023-05-02T08:01:10;94937.94;;;14.59;53.04
65832;BME280;52593;42.648;23.332;2023-05-02T08:03:36;94936.97;;;14.67;52.93
65832;BME280;52593;42.648;23.332;2023-05-02T08:06:01;94936.41;;;14.85;51.54
65832;BME280;52593;42.648;23.332;2023-05-02T08:08:26;94944.88;;;14.69;51.99
65832;BME280;52593;42.648;23.332;2023-05-02T08:10:52;94943.97;;;15.03;51.51
65832;BME280;52593;42.648;23.332;2023-05-02T08:13:17;94946.06;;;15.08;51.04
65832;BME280;52593;42.648;23.332;2023-05-02T08:15:43;94946.16;;;15.34;51.62
65832;BME280;52593;42.648;23.332;2023-05-02T08:18:08;94943.88;;;15.38;50.77
65832;BME280;52593;42.648;23.332;2023-05-02T08:20:34;94938.09;;;15.61;49.66
65832;BME280;52593;42.648;23.332;2023-05-02T08:22:59;94945.97;;;15.49;49.86
65832;BME280;52593;42.648;23.332;2023-05-02T08:25:25;94944.50;;;15.40;50.28
65832;BME280;52593;42.648;23.332;2023-05-02T08:27:50;94941.66;;;15.68;49.36
65832;BME280;52593;42.648;23.332;2023-05-02T08:30:16;94931.66;;;15.56;49.67
65832;BME280;52593;42.648;23.332;2023-05-02T08:32:41;94936.66;;;15.72;49.75
65832;BME280;52593;42.648;23.332;2023-05-02T08:35:07;94939.44;;;15.99;49.85
65832;BME280;52593;42.648;23.332;2023-05-02T08:37:32;94935.47;;;16.08;48.50
65832;BME280;52593;42.648;23.332;2023-05-02T08:39:59;94931.28;;;16.39;47.37
65832;BME280;52593;42.648;23.332;2023-05-02T08:42:25;94929.81;;;16.50;48.11
65832;BME280;52593;42.648;23.332;2023-05-02T08:44:50;94928.13;;;16.62;46.68
65832;BME280;52593;42.648;23.332;2023-05-02T08:47:17;94927.88;;;16.70;45.44
65832;BME280;52593;42.648;23.332;2023-05-02T08:49:44;94926.81;;;16.85;46.10
65832;BME280;52593;42.648;23.332;2023-05-02T08:52:11;94927.88;;;16.70;44.79
65832;BME280;52593;42.648;23.332;2023-05-02T08:54:37;94931.16;;;16.86;46.01
65832;BME280;52593;42.648;23.332;2023-05-02T08:57:03;94929.63;;;16.25;46.20
65832;BME280;52593;42.648;23.332;2023-05-02T08:59:30;94937.13;;;16.16;46.27
65832;BME280;52593;42.648;23.332;2023-05-02T09:02:15;94928.00;;;15.90;47.16
65832;BME280;52593;42.648;23.332;2023-05-02T09:04:43;94921.31;;;16.33;47.97
65832;BME280;52593;42.648;23.332;2023-05-02T09:07:09;94925.91;;;16.26;47.16
65832;BME280;52593;42.648;23.332;2023-05-02T09:09:35;94923.53;;;16.69;46.31
65832;BME280;52593;42.648;23.332;2023-05-02T09:12:02;94925.88;;;17.18;45.36
65832;BME280;52593;42.648;23.332;2023-05-02T09:14:27;94913.50;;;17.67;44.12
65832;BME280;52593;42.648;23.332;2023-05-02T09:16:57;94919.09;;;17.72;44.57
65832;BME280;52593;42.648;23.332;2023-05-02T09:19:24;94911.88;;;17.66;43.89
65832;BME280;52593;42.648;23.332;2023-05-02T09:21:50;94915.31;;;17.80;43.29
65832;BME280;52593;42.648;23.332;2023-05-02T09:24:20;94909.38;;;17.96;43.66
65832;BME280;52593;42.648;23.332;2023-05-02T09:27:15;94907.34;;;17.92;42.16
65832;BME280;52593;42.648;23.332;2023-05-02T09:29:41;94911.13;;;18.09;42.95
65832;BME280;52593;42.648;23.332;2023-05-02T09:32:10;94903.47;;;17.74;42.04
65832;BME280;52593;42.648;23.332;2023-05-02T09:34:35;94898.72;;;17.70;42.40
65832;BME280;52593;42.648;23.332;2023-05-02T09:37:03;94899.00;;;17.93;42.21
65832;BME280;52593;42.648;23.332;2023-05-02T09:39:29;94905.38;;;18.24;41.95
65832;BME280;52593;42.648;23.332;2023-05-02T09:41:56;94899.78;;;18.44;42.21
65832;BME280;52593;42.648;23.332;2023-05-02T09:44:23;94896.97;;;18.32;41.51
65832;BME280;52593;42.648;23.332;2023-05-02T09:46:51;94892.47;;;18.45;41.06
65832;BME280;52593;42.648;23.332;2023-05-02T09:49:17;94891.44;;;18.64;41.87
65832;BME280;52593;42.648;23.332;2023-05-02T09:51:44;94889.19;;;18.61;41.21
65832;BME280;52593;42.648;23.332;2023-05-02T09:54:11;94885.56;;;18.67;40.13
65832;BME280;52593;42.648;23.332;2023-05-02T09:56:53;94885.09;;;18.70;40.44
65832;BME280;52593;42.648;23.332;2023-05-02T09:59:20;94881.50;;;18.95;40.17
65832;BME280;52593;42.648;23.332;2023-05-02T10:01:56;94876.44;;;18.80;40.48
65832;BME280;52593;42.648;23.332;2023-05-02T10:04:23;94883.75;;;18.61;39.84
65832;BME280;52593;42.648;23.332;2023-05-02T10:06:50;94875.69;;;19.10;40.38
65832;BME280;52593;42.648;23.332;2023-05-02T10:09:15;94874.03;;;19.09;38.87
65832;BME280;52593;42.648;23.332;2023-05-02T10:11:44;94865.53;;;19.05;37.57
65832;BME280;52593;42.648;23.332;2023-05-02T10:14:11;94867.09;;;19.13;38.61
65832;BME280;52593;42.648;23.332;2023-05-02T10:17:00;94867.16;;;19.06;39.38
65832;BME280;52593;42.648;23.332;2023-05-02T10:19:29;94868.84;;;19.38;38.30
65832;BME280;52593;42.648;23.332;2023-05-02T10:21:58;94864.38;;;19.13;38.16
65832;BME280;52593;42.648;23.332;2023-05-02T10:24:24;94861.22;;;19.47;37.91
65832;BME280;52593;42.648;23.332;2023-05-02T10:26:51;94867.97;;;19.25;36.69
65832;BME280;52593;42.648;23.332;2023-05-02T10:29:17;94858.50;;;19.47;36.81
65832;BME280;52593;42.648;23.332;2023-05-02T10:31:43;94854.53;;;19.73;36.19
65832;BME280;52593;42.648;23.332;2023-05-02T10:34:10;94853.59;;;19.25;36.33
65832;BME280;52593;42.648;23.332;2023-05-02T10:36:37;94853.78;;;19.42;36.66
65832;BME280;52593;42.648;23.332;2023-05-02T10:39:03;94853.53;;;19.13;35.95
65832;BME280;52593;42.648;23.332;2023-05-02T10:41:30;94849.03;;;19.07;36.80
65832;BME280;52593;42.648;23.332;2023-05-02T10:43:57;94848.63;;;19.64;35.86
65832;BME280;52593;42.648;23.332;2023-05-02T10:46:32;94855.50;;;19.36;36.15
65832;BME280;52593;42.648;23.332;2023-05-02T10:49:05;94842.25;;;19.70;35.71
65832;BME280;52593;42.648;23.332;2023-05-02T10:51:32;94851.97;;;19.78;34.71
65832;BME280;52593;42.648;23.332;2023-05-02T10:59:39;94837.00;;;20.23;35.04
65832;BME280;52593;42.648;23.332;2023-05-02T11:05:05;94846.34;;;20.03;34.85
65832;BME280;52593;42.648;23.332;2023-05-02T11:07:35;94839.66;;;19.64;34.60
65832;BME280;52593;42.648;23.332;2023-05-02T11:10:23;94831.06;;;19.67;34.76
65832;BME280;52593;42.648;23.332;2023-05-02T11:12:54;94842.34;;;19.94;34.61
65832;BME280;52593;42.648;23.332;2023-05-02T11:20:26;94829.34;;;19.96;34.14
65832;BME280;52593;42.648;23.332;2023-05-02T11:22:52;94830.81;;;19.68;35.18
65832;BME280;52593;42.648;23.332;2023-05-02T11:25:31;94830.53;;;20.00;34.98
65832;BME280;52593;42.648;23.332;2023-05-02T11:27:56;94827.47;;;20.20;34.19
65832;BME280;52593;42.648;23.332;2023-05-02T11:30:48;94823.91;;;19.96;35.01
65832;BME280;52593;42.648;23.332;2023-05-02T11:33:15;94823.41;;;19.87;33.72
65832;BME280;52593;42.648;23.332;2023-05-02T11:35:42;94818.25;;;19.98;34.99
65832;BME280;52593;42.648;23.332;2023-05-02T11:38:12;94822.84;;;20.09;35.25
65832;BME280;52593;42.648;23.332;2023-05-02T11:40:38;94816.59;;;20.20;34.50
65832;BME280;52593;42.648;23.332;2023-05-02T11:43:17;94808.31;;;20.39;35.27
65832;BME280;52593;42.648;23.332;2023-05-02T11:45:43;94807.34;;;20.97;33.74
65832;BME280;52593;42.648;23.332;2023-05-02T11:48:12;94803.03;;;21.13;32.95
65832;BME280;52593;42.648;23.332;2023-05-02T11:50:51;94810.88;;;20.45;34.10
65832;BME280;52593;42.648;23.332;2023-05-02T11:53:25;94808.63;;;20.42;33.71
65832;BME280;52593;42.648;23.332;2023-05-02T11:55:55;94807.59;;;20.43;34.11
65832;BME280;52593;42.648;23.332;2023-05-02T11:58:23;94796.75;;;20.84;34.18
65832;BME280;52593;42.648;23.332;2023-05-02T12:00:50;94797.66;;;20.49;33.99
65832;BME280;52593;42.648;23.332;2023-05-02T12:03:28;94785.31;;;21.11;33.28
65832;BME280;52593;42.648;23.332;2023-05-02T12:05:55;94790.38;;;21.36;33.00
65832;BME280;52593;42.648;23.332;2023-05-02T12:08:27;94786.34;;;21.38;33.41
65832;BME280;52593;42.648;23.332;2023-05-02T12:10:54;94783.69;;;20.98;32.74
65832;BME280;52593;42.648;23.332;2023-05-02T12:13:22;94774.78;;;21.48;33.01
65832;BME280;52593;42.648;23.332;2023-05-02T12:15:48;94775.69;;;20.91;32.99
65832;BME280;52593;42.648;23.332;2023-05-02T12:18:14;94769.59;;;21.47;33.95
65832;BME280;52593;42.648;23.332;2023-05-02T12:20:41;94774.69;;;21.72;32.41
65832;BME280;52593;42.648;23.332;2023-05-02T12:23:07;94767.16;;;21.96;32.57
65832;BME280;52593;42.648;23.332;2023-05-02T12:25:39;94765.00;;;21.47;31.81
65832;BME280;52593;42.648;23.332;2023-05-02T12:28:05;94765.78;;;21.60;32.91
65832;BME280;52593;42.648;23.332;2023-05-02T12:30:31;94764.72;;;22.17;31.39
65832;BME280;52593;42.648;23.332;2023-05-02T12:33:01;94762.13;;;21.88;31.34
65832;BME280;52593;42.648;23.332;2023-05-02T12:35:27;94753.88;;;21.83;31.44
65832;BME280;52593;42.648;23.332;2023-05-02T12:37:53;94737.25;;;22.62;30.34
65832;BME280;52593;42.648;23.332;2023-05-02T12:40:20;94744.19;;;22.48;31.25
65832;BME280;52593;42.648;23.332;2023-05-02T12:43:03;94742.41;;;22.59;31.45
65832;BME280;52593;42.648;23.332;2023-05-02T12:45:32;94730.84;;;22.74;29.53
65832;BME280;52593;42.648;23.332;2023-05-02T12:48:02;94738.13;;;21.68;31.76
65832;BME280;52593;42.648;23.332;2023-05-02T12:50:41;94733.78;;;22.28;31.05
65832;BME280;52593;42.648;23.332;2023-05-02T12:53:07;94726.66;;;22.05;31.43
65832;BME280;52593;42.648;23.332;2023-05-02T12:55:32;94733.28;;;22.09;31.23
65832;BME280;52593;42.648;23.332;2023-05-02T12:58:01;94721.78;;;22.46;31.05
65832;BME280;52593;42.648;23.332;2023-05-02T13:00:27;94731.50;;;22.37;30.73
65832;BME280;52593;42.648;23.332;2023-05-02T13:02:53;94728.69;;;21.92;30.58
65832;BME280;52593;42.648;23.332;2023-05-02T13:05:19;94724.94;;;21.99;30.51
65832;BME280;52593;42.648;23.332;2023-05-02T13:07:44;94732.66;;;21.85;31.21
65832;BME280;52593;42.648;23.332;2023-05-02T13:10:10;94732.75;;;21.73;30.99
65832;BME280;52593;42.648;23.332;2023-05-02T13:12:36;94737.31;;;21.67;31.26
65832;BME280;52593;42.648;23.332;2023-05-02T13:15:06;94732.41;;;21.35;31.12
65832;BME280;52593;42.648;23.332;2023-05-02T13:17:32;94741.78;;;21.96;30.74
65832;BME280;52593;42.648;23.332;2023-05-02T13:19:58;94735.94;;;22.04;30.37
65832;BME280;52593;42.648;23.332;2023-05-02T13:22:24;94738.09;;;21.85;29.90
65832;BME280;52593;42.648;23.332;2023-05-02T13:24:51;94730.75;;;22.02;29.75